Time;durP1;ratioP1;P1;durP2;ratioP2;P2;SDS_P1;SDS_P2;PMS_P1;PMS_P2;Temp;Humidity;BMP_temperature;BMP_pressure;BME280_temperature;BME280_humidity;BME280_pressure;Samples;Min_cycle;Max_cycle;Signal;HPM_P1;HPM_P2
2021/10/13 00:09:00;;;;;;;3.71;2.31;;;;;;;5.97;93.03;99857.25;2345503;68;20308;-81
2021/10/13 03:28:27;;;;;;;2.99;2.39;;;;;;;3.43;92.04;99975.41;2309750;68;20335;-81
2021/10/13 03:31:55;;;;;;;2.54;2.06;;;;;;;3.29;91.64;99980.09;2333028;69;20294;-83
2021/10/13 03:36:00;;;;;;;2.29;2.09;;;;;;;3.24;92.05;99978.19;2331668;69;20272;-82
2021/10/13 06:28:48;;;;;;;2.88;2.60;;;;;;;3.53;94.00;100140.88;2343676;68;20354;-85
2021/10/13 06:32:37;;;;;;;7.54;2.95;;;;;;;3.61;94.26;100139.47;2299126;69;1073339;-82
2021/10/13 06:35:42;;;;;;;14.82;3.14;;;;;;;3.71;94.56;100150.94;2340847;68;20127;-82
2021/10/13 06:38:45;;;;;;;8.88;3.20;;;;;;;3.76;94.74;100147.69;2343217;68;20236;-83
2021/10/13 06:42:45;;;;;;;12.14;2.81;;;;;;;3.83;94.74;100159.09;2344539;68;20264;-81
2021/10/13 06:47:06;;;;;;;10.48;2.72;;;;;;;3.86;94.65;100161.75;2335519;68;20388;-82
2021/10/13 07:40:04;;;;;;;4.71;2.76;;;;;;;5.40;93.55;100206.16;2303907;69;20343;31
2021/10/13 08:05:55;;;;;;;2.49;1.76;;;;;;;6.70;90.70;100234.59;2303810;68;20344;-81
2021/10/13 08:08:58;;;;;;;3.11;2.10;;;;;;;6.80;90.28;100227.09;2347448;69;20323;-81
2021/10/13 08:12:01;;;;;;;2.03;1.76;;;;;;;6.80;89.28;100226.25;2346424;68;20301;-81
2021/10/13 08:15:04;;;;;;;1.74;1.64;;;;;;;6.85;88.92;100232.41;2348185;68;20248;-81
2021/10/13 08:18:07;;;;;;;2.05;1.84;;;;;;;7.01;89.15;100231.94;2333477;68;20236;-82
2021/10/13 08:21:10;;;;;;;2.56;1.95;;;;;;;7.15;89.12;100232.22;2349119;68;20252;-82
2021/10/13 08:24:13;;;;;;;2.16;1.96;;;;;;;7.17;88.44;100236.59;2342131;68;20272;-81
2021/10/13 08:27:28;;;;;;;2.44;2.24;;;;;;;7.31;88.62;100236.91;2324064;69;20302;-81
2021/10/13 08:31:15;;;;;;;2.35;2.08;;;;;;;7.40;88.34;100241.41;2332707;68;20233;-82
2021/10/13 08:34:31;;;;;;;2.40;2.05;;;;;;;7.42;88.17;100239.72;2334180;69;20244;-81
2021/10/13 08:37:35;;;;;;;2.86;2.04;;;;;;;7.55;88.28;100234.00;2331947;68;20240;-82
2021/10/13 08:40:53;;;;;;;2.11;1.80;;;;;;;7.62;88.33;100238.44;2331177;69;20260;-82
2021/10/13 08:43:57;;;;;;;2.70;1.91;;;;;;;7.71;88.34;100242.91;2341055;68;20244;-82
2021/10/13 08:47:00;;;;;;;2.58;2.33;;;;;;;7.74;88.41;100243.00;2335052;68;20287;-82
2021/10/13 08:50:18;;;;;;;5.72;3.50;;;;;;;7.80;88.38;100246.59;2339829;68;20325;-81
2021/10/13 08:53:24;;;;;;;3.71;2.20;;;;;;;7.86;88.10;100256.16;2335739;69;20276;-81
2021/10/13 08:56:29;;;;;;;3.65;2.20;;;;;;;7.94;88.03;100252.03;2334708;69;20306;-81
2021/10/13 08:59:41;;;;;;;2.81;2.40;;;;;;;7.94;87.13;100256.34;2345591;68;20317;-81
2021/10/13 09:02:49;;;;;;;2.86;2.34;;;;;;;7.90;86.69;100255.41;2329192;69;20284;-81
2021/10/13 09:06:37;;;;;;;3.05;2.20;;;;;;;7.95;87.10;100261.53;2331030;69;20337;-80
2021/10/13 09:09:48;;;;;;;2.88;2.10;;;;;;;8.09;86.90;100257.50;2307977;69;20299;-81
2021/10/13 09:12:51;;;;;;;2.86;2.26;;;;;;;8.20;86.71;100262.88;2311328;69;20311;-80
2021/10/13 09:15:54;;;;;;;4.60;2.38;;;;;;;8.28;86.69;100266.50;2308147;69;20396;-81
2021/10/13 09:19:00;;;;;;;4.01;2.45;;;;;;;8.41;86.81;100275.38;2309077;69;20361;-81
2021/10/13 09:22:07;;;;;;;2.30;2.09;;;;;;;8.52;86.41;100273.88;2308853;69;20299;-80
2021/10/13 09:25:11;;;;;;;7.44;2.82;;;;;;;8.61;86.41;100280.91;2309109;69;20416;-80
2021/10/13 09:28:16;;;;;;;2.47;2.28;;;;;;;8.65;86.13;100275.84;2311587;69;20170;-81
2021/10/13 09:31:22;;;;;;;5.63;2.54;;;;;;;8.64;85.56;100281.00;2309523;69;20284;-81
2021/10/13 09:34:25;;;;;;;5.14;3.14;;;;;;;8.62;84.97;100280.97;2311007;69;20339;-80
2021/10/13 09:37:49;;;;;;;3.74;3.03;;;;;;;8.61;84.83;100279.19;2309885;69;20311;-80
2021/10/13 09:41:01;;;;;;;5.15;3.45;;;;;;;8.55;85.17;100276.50;2308870;69;20292;-80
2021/10/13 09:44:13;;;;;;;6.32;4.01;;;;;;;8.51;84.77;100279.88;2311507;69;20306;-81
2021/10/13 09:47:18;;;;;;;7.22;4.06;;;;;;;8.55;84.72;100279.09;2337038;68;20328;-81
2021/10/13 09:50:20;;;;;;;9.40;4.39;;;;;;;8.87;84.85;100271.88;2328423;69;20325;-80
2021/10/13 09:53:26;;;;;;;5.96;4.06;;;;;;;9.13;83.98;100269.69;2333026;69;20227;-80
2021/10/13 09:56:35;;;;;;;6.69;4.40;;;;;;;9.41;83.46;100273.59;2318796;68;20287;-81
2021/10/13 09:59:57;;;;;;;6.39;3.53;;;;;;;9.51;82.67;100271.97;2330947;68;20786;-80
2021/10/13 10:03:04;;;;;;;5.59;3.85;;;;;;;9.49;82.06;100269.38;2334112;68;20147;-80
2021/10/13 10:06:09;;;;;;;5.14;3.58;;;;;;;9.54;81.58;100270.31;2329602;68;20096;-81
2021/10/13 10:09:19;;;;;;;5.86;3.41;;;;;;;9.62;81.96;100270.41;2330255;68;20560;-80
2021/10/13 10:12:22;;;;;;;4.16;2.95;;;;;;;9.59;81.66;100268.66;2327616;68;20151;-80
2021/10/13 10:15:28;;;;;;;4.36;2.90;;;;;;;9.56;81.78;100266.03;2326848;68;20640;-81
2021/10/13 10:18:35;;;;;;;4.29;3.47;;;;;;;9.73;82.31;100273.16;2329750;69;21173;-80
2021/10/13 10:21:58;;;;;;;4.41;2.49;;;;;;;10.05;82.96;100277.00;2325895;68;20181;-80
2021/10/13 10:25:06;;;;;;;4.99;2.95;;;;;;;10.46;84.12;100281.84;2325913;69;20169;-80
2021/10/13 10:28:48;;;;;;;2.95;2.63;;;;;;;10.72;82.40;100285.56;2326642;69;20147;-80
2021/10/13 10:31:57;;;;;;;2.50;2.24;;;;;;;10.87;81.22;100287.44;2325506;66;29687;-80
2021/10/13 10:35:05;;;;;;;;;;;;;;;10.97;80.38;100289.25;2325549;68;20178;-80
2021/10/13 10:38:08;;;;;;;2.72;2.15;;;;;;;11.10;80.29;100290.19;2325449;69;20039;-80
2021/10/13 10:41:11;;;;;;;4.93;3.06;;;;;;;11.30;80.21;100290.34;2325622;69;20246;-80
2021/10/13 10:44:26;;;;;;;5.36;2.55;;;;;;;11.37;78.75;100287.81;2325749;68;20160;-80
2021/10/13 10:48:06;;;;;;;4.20;2.89;;;;;;;11.44;77.88;100283.53;2322755;69;20169;-80
2021/10/13 10:51:10;;;;;;;7.86;2.67;;;;;;;11.63;78.00;100282.75;2324611;69;20164;-80
2021/10/13 10:54:32;;;;;;;5.61;2.89;;;;;;;11.86;77.36;100279.47;2320630;69;20148;-80
2021/10/13 10:57:49;;;;;;;5.11;2.33;;;;;;;12.20;77.32;100275.25;2325298;68;20163;-80
2021/10/13 11:01:03;;;;;;;3.41;2.28;;;;;;;12.43;76.17;100270.13;2312597;68;769498;-80
2021/10/13 11:04:21;;;;;;;6.39;2.76;;;;;;;12.71;75.37;100271.88;2326485;68;20148;-80
2021/10/13 11:07:48;;;;;;;5.79;2.72;;;;;;;12.87;73.52;100276.25;2325560;68;20674;-80
2021/10/13 11:11:15;;;;;;;7.40;2.38;;;;;;;12.92;72.79;100276.22;2331555;68;20192;-80
2021/10/13 11:14:33;;;;;;;20.30;14.13;;;;;;;12.90;72.75;100278.84;2329411;68;20150;-80
2021/10/13 11:17:54;;;;;;;6.97;2.99;;;;;;;12.90;72.03;100270.16;2327974;68;20185;-80
2021/10/13 11:21:19;;;;;;;4.18;2.67;;;;;;;12.82;71.07;100270.16;2329007;68;20147;-80
2021/10/13 11:24:24;;;;;;;4.24;2.25;;;;;;;12.79;71.63;100266.69;2320568;68;20228;-80
2021/10/13 11:27:34;;;;;;;5.49;2.60;;;;;;;12.75;71.91;100268.44;2330279;68;20131;-79
2021/10/13 11:30:50;;;;;;;4.74;2.03;;;;;;;12.82;71.30;100261.47;2320914;68;20159;-80
2021/10/13 11:34:16;;;;;;;4.14;2.09;;;;;;;13.24;73.31;100265.81;2318943;68;20223;-80
2021/10/13 11:37:37;;;;;;;4.41;2.05;;;;;;;13.55;70.78;100262.31;2330902;68;20652;-79
2021/10/13 11:41:16;;;;;;;5.00;1.61;;;;;;;13.75;68.93;100264.84;2327797;68;20174;-80
2021/10/13 11:44:58;;;;;;;5.30;1.76;;;;;;;13.76;68.65;100258.75;2326717;68;20185;-80
2021/10/13 11:48:32;;;;;;;3.99;1.40;;;;;;;13.81;67.99;100262.22;2327900;67;20172;-80
2021/10/13 11:52:19;;;;;;;3.44;1.75;;;;;;;14.27;67.84;100258.53;2329889;68;20190;-80
2021/10/13 11:56:24;;;;;;;4.68;1.24;;;;;;;14.72;66.19;100260.00;2321021;68;20303;-79
2021/10/13 11:59:40;;;;;;;1.77;1.09;;;;;;;14.95;64.81;100254.63;2318537;68;20155;-80
2021/10/13 12:03:22;;;;;;;4.69;1.41;;;;;;;15.03;61.75;100255.41;2324843;68;20147;-80
2021/10/13 12:06:59;;;;;;;2.09;1.21;;;;;;;14.63;60.00;100257.47;2330540;68;20177;-80
2021/10/13 12:11:31;;;;;;;;;;;;;;;;;;;;;
2021/10/13 12:15:29;;;;;;;4.55;1.00;;;;;;;13.81;63.26;100263.94;2295173;69;20646;-79
2021/10/13 12:18:50;;;;;;;2.47;0.90;;;;;;;13.53;65.97;100261.44;2298075;69;20259;-79
2021/10/13 12:22:11;;;;;;;2.44;0.88;;;;;;;13.45;67.55;100263.19;2294497;69;20247;-80
2021/10/13 12:26:15;;;;;;;2.96;1.06;;;;;;;13.33;66.63;100258.00;2297691;69;20178;-80
2021/10/13 12:29:45;;;;;;;3.50;0.81;;;;;;;13.28;65.78;100260.63;2288763;70;20292;-79
2021/10/13 12:33:27;;;;;;;4.46;0.89;;;;;;;13.21;66.78;100252.78;2290662;70;20348;-80
2021/10/13 12:36:59;;;;;;;1.23;0.71;;;;;;;13.14;65.99;100253.66;2285779;70;20155;-80
2021/10/13 12:40:21;;;;;;;2.84;1.15;;;;;;;13.07;65.54;100257.97;2287824;70;20195;-79
2021/10/13 12:43:44;;;;;;;1.73;0.70;;;;;;;13.03;67.16;100251.03;2286074;70;20276;-79
2021/10/13 12:47:07;;;;;;;1.79;0.63;;;;;;;13.02;69.04;100251.91;2279270;70;743873;-79
2021/10/13 12:50:25;;;;;;;1.20;0.77;;;;;;;12.97;70.01;100251.06;2295662;69;20845;-80
2021/10/13 12:53:44;;;;;;;2.36;0.63;;;;;;;12.91;70.26;100244.09;2318792;69;20213;-79
2021/10/13 12:57:12;;;;;;;1.70;0.60;;;;;;;12.86;69.70;100242.34;2311810;69;20180;-79
2021/10/13 13:00:16;;;;;;;2.84;0.68;;;;;;;12.83;70.17;100238.03;2319258;69;20702;-79
2021/10/13 13:03:31;;;;;;;1.14;0.60;;;;;;;12.85;71.09;100235.41;2327171;69;20550;-79
2021/10/13 13:07:15;;;;;;;4.14;0.74;;;;;;;13.00;70.74;100238.00;2326847;68;20155;-79
2021/10/13 13:10:34;;;;;;;4.28;0.70;;;;;;;13.38;68.93;100234.50;2321740;69;20173;-79
2021/10/13 13:13:48;;;;;;;2.49;0.64;;;;;;;13.49;67.24;100241.44;2323695;68;20167;-78
2021/10/13 13:17:35;;;;;;;1.81;0.40;;;;;;;13.73;66.00;100231.81;2305661;68;1362278;-79
2021/10/13 13:20:51;;;;;;;3.66;0.50;;;;;;;14.16;65.57;100233.31;2323621;69;20680;-79
2021/10/13 13:24:24;;;;;;;1.27;0.40;;;;;;;14.46;64.31;100229.69;2325052;69;20167;-79
2021/10/13 13:27:41;;;;;;;2.55;0.50;;;;;;;14.25;61.94;100228.94;2324812;68;20648;-80
2021/10/13 13:31:41;;;;;;;2.84;0.47;;;;;;;13.90;62.76;100238.69;2318210;69;20297;-79
2021/10/13 13:34:56;;;;;;;2.22;0.34;;;;;;;13.63;64.13;100243.13;2322545;69;20199;-79
2021/10/13 13:38:01;;;;;;;1.21;0.34;;;;;;;13.44;65.69;100243.19;2320908;69;20169;-79
2021/10/13 13:41:04;;;;;;;2.20;0.30;;;;;;;13.32;65.79;100243.22;2322818;69;20203;-79
2021/10/13 13:44:09;;;;;;;1.38;0.31;;;;;;;13.23;68.20;100238.00;2322429;69;20533;-79
2021/10/13 13:47:15;;;;;;;2.63;0.40;;;;;;;13.20;70.17;100235.41;2310136;69;736996;-79
2021/10/13 13:50:30;;;;;;;1.41;0.40;;;;;;;13.26;69.58;100236.25;2322868;69;20177;-79
2021/10/13 13:53:40;;;;;;;1.19;0.40;;;;;;;13.40;70.26;100240.59;2321206;69;20181;-79
2021/10/13 13:56:48;;;;;;;1.13;0.34;;;;;;;13.54;69.64;100236.22;2318327;69;20151;-79
2021/10/13 13:59:59;;;;;;;0.73;0.39;;;;;;;13.57;67.15;100238.81;2322407;69;20152;-79
2021/10/13 14:03:16;;;;;;;1.81;0.40;;;;;;;13.60;67.79;100244.88;2307718;68;1256184;-79
2021/10/13 14:06:25;;;;;;;2.53;0.70;;;;;;;13.73;67.33;100240.50;2322465;69;20276;-79
2021/10/13 14:09:44;;;;;;;1.42;0.40;;;;;;;13.77;65.13;100239.59;2325841;68;20294;-79
2021/10/13 14:12:58;;;;;;;1.00;0.32;;;;;;;13.75;64.67;100245.72;2328246;68;20171;-79
2021/10/13 14:16:38;;;;;;;1.94;0.59;;;;;;;13.65;62.03;100244.88;2332759;68;20151;-80
2021/10/13 14:20:18;;;;;;;1.91;0.44;;;;;;;13.47;59.79;100245.81;2332140;68;20312;-80
2021/10/13 14:24:16;;;;;;;1.25;0.50;;;;;;;13.31;62.79;100246.72;2334516;68;20181;-79
2021/10/13 14:27:41;;;;;;;1.89;0.40;;;;;;;13.13;62.99;100252.78;2329603;68;20609;-78
2021/10/13 14:30:46;;;;;;;1.76;0.57;;;;;;;12.96;64.87;100257.13;2326592;65;25524;-78
2021/10/13 14:33:48;;;;;;;2.14;0.40;;;;;;;12.73;66.79;100251.03;2328015;68;20631;-78
2021/10/13 14:36:52;;;;;;;1.23;0.41;;;;;;;12.65;65.87;100253.66;2326988;68;20178;-78
2021/10/13 14:40:15;;;;;;;1.35;0.50;;;;;;;12.59;66.39;100257.13;2326854;68;20151;-78
2021/10/13 14:43:17;;;;;;;3.08;0.50;;;;;;;12.54;68.92;100255.34;2327272;68;20163;-78
2021/10/13 14:46:20;;;;;;;1.45;0.40;;;;;;;12.53;70.02;100262.31;2327068;65;20721;-78
2021/10/13 14:49:23;;;;;;;2.13;0.61;;;;;;;12.55;70.82;100257.09;2328285;68;20159;-78
2021/10/13 14:52:25;;;;;;;1.59;0.50;;;;;;;12.55;71.08;100264.91;2327588;68;20177;-78
2021/10/13 14:55:28;;;;;;;1.17;0.60;;;;;;;12.56;71.83;100266.63;2326964;68;20251;-78
2021/10/13 14:58:30;;;;;;;2.14;0.50;;;;;;;12.55;71.72;100265.78;2328447;68;20223;-78
2021/10/13 15:01:33;;;;;;;3.19;0.50;;;;;;;12.54;72.99;100271.84;2324268;66;29515;-78
2021/10/13 15:04:39;;;;;;;1.29;0.49;;;;;;;12.56;73.01;100266.63;2327947;68;20171;-78
2021/10/13 15:07:41;;;;;;;1.10;0.43;;;;;;;12.57;71.20;100261.47;2328125;68;21016;-78
2021/10/13 15:10:44;;;;;;;1.90;0.50;;;;;;;12.56;71.80;100264.03;2327010;68;20177;-78
2021/10/13 15:13:47;;;;;;;0.73;0.40;;;;;;;12.56;72.50;100267.50;2326055;68;20255;-78
2021/10/13 15:16:49;;;;;;;2.51;0.60;;;;;;;12.48;70.23;100261.44;2325626;66;21932;-78
2021/10/13 15:19:53;;;;;;;1.34;0.44;;;;;;;12.39;69.05;100277.06;2332813;68;20139;-79
2021/10/13 15:23:00;;;;;;;1.76;0.42;;;;;;;12.27;68.68;100272.69;2328076;68;20746;-79
2021/10/13 15:26:03;;;;;;;2.41;0.49;;;;;;;12.15;69.93;100269.16;2327858;68;20215;-78
2021/10/13 15:29:17;;;;;;;1.41;0.60;;;;;;;12.03;69.49;100267.41;2328105;68;20255;-78
2021/10/13 15:32:20;;;;;;;1.20;0.45;;;;;;;11.91;70.48;100270.81;2327543;65;23364;-78
2021/10/13 15:35:24;;;;;;;0.41;0.30;;;;;;;11.84;73.07;100270.75;2328161;68;20151;-79
2021/10/13 15:38:34;;;;;;;1.41;0.49;;;;;;;11.75;75.35;100275.03;2323243;68;20756;-79
2021/10/13 15:42:01;;;;;;;2.29;0.50;;;;;;;11.68;76.30;100275.88;2328200;68;20271;-78
2021/10/13 15:49:12;;;;;;;3.59;0.44;;;;;;;11.52;77.56;100283.59;2323227;68;20491;-79
2021/10/13 15:52:14;;;;;;;1.50;0.29;;;;;;;11.41;78.59;100286.09;2329235;68;20626;-80
2021/10/13 15:55:17;;;;;;;1.81;0.30;;;;;;;11.28;79.27;100282.53;2328444;68;20151;-79
2021/10/13 15:58:20;;;;;;;2.35;0.45;;;;;;;11.17;79.63;100292.88;2327776;68;20171;-79
2021/10/13 16:01:23;;;;;;;2.10;0.40;;;;;;;11.07;80.23;100278.06;2325538;65;21155;-79
2021/10/13 16:04:26;;;;;;;1.60;0.40;;;;;;;10.99;80.81;100284.06;2328149;68;20653;-79
2021/10/13 16:07:29;;;;;;;2.40;0.40;;;;;;;10.90;81.01;100282.25;2327518;68;21025;-79
2021/10/13 16:10:32;;;;;;;1.24;0.40;;;;;;;10.74;81.37;100276.03;2327708;68;20158;-79
2021/10/13 16:13:35;;;;;;;0.50;0.40;;;;;;;10.67;81.75;100274.25;2327931;68;20168;-79
2021/10/13 16:16:38;;;;;;;1.67;0.40;;;;;;;10.62;82.00;100270.75;2327841;65;23593;-79
2021/10/13 16:19:40;;;;;;;3.69;0.40;;;;;;;10.57;82.51;100270.69;2328911;68;20709;-79
2021/10/13 16:22:45;;;;;;;1.45;0.40;;;;;;;10.53;82.92;100292.28;2326380;68;20166;-78
2021/10/13 16:25:48;;;;;;;1.74;0.50;;;;;;;10.55;83.02;100297.50;2328332;68;20159;-79
2021/10/13 16:28:50;;;;;;;0.77;0.40;;;;;;;10.50;82.74;100301.78;2327912;68;20177;-78
2021/10/13 16:31:53;;;;;;;1.29;0.40;;;;;;;10.45;83.07;100298.28;2326029;65;24119;-78
2021/10/13 16:34:55;;;;;;;0.61;0.43;;;;;;;10.40;82.86;100290.41;2327967;68;20183;-79
2021/10/13 16:37:59;;;;;;;1.39;0.41;;;;;;;10.34;83.06;100286.91;2329133;68;20165;-79
2021/10/13 16:41:03;;;;;;;0.59;0.30;;;;;;;10.24;83.46;100291.13;2328746;68;20190;-79
2021/10/13 16:44:06;;;;;;;0.98;0.40;;;;;;;10.10;83.71;100295.25;2328263;68;20179;-78
2021/10/13 16:47:09;;;;;;;1.91;0.55;;;;;;;9.96;83.77;100297.66;2327031;66;27180;-79
2021/10/13 16:50:12;;;;;;;0.60;0.40;;;;;;;9.81;83.83;100300.94;2328044;68;20151;-78
2021/10/13 16:53:15;;;;;;;0.75;0.40;;;;;;;9.66;83.98;100311.09;2328247;68;20189;-79
2021/10/13 16:56:18;;;;;;;1.79;0.50;;;;;;;9.50;84.01;100311.72;2327724;68;20210;-78
2021/10/13 16:59:21;;;;;;;1.35;0.40;;;;;;;9.25;83.98;100311.34;2327358;68;20159;-78
2021/10/13 17:02:24;;;;;;;1.30;0.40;;;;;;;9.11;84.48;100314.56;2323557;66;21386;-78
2021/10/13 17:05:27;;;;;;;1.94;0.38;;;;;;;8.96;84.56;100318.63;2327350;68;20971;-78
2021/10/13 17:08:30;;;;;;;1.01;0.45;;;;;;;8.81;84.57;100325.31;2326505;68;20235;-78
2021/10/13 17:11:33;;;;;;;1.27;0.40;;;;;;;8.67;84.69;100320.75;2328638;68;20151;-79
2021/10/13 17:14:36;;;;;;;1.04;0.50;;;;;;;8.55;84.87;100324.81;2327417;68;20299;-79
2021/10/13 17:17:38;;;;;;;1.41;0.39;;;;;;;8.43;84.97;100322.84;2323414;65;22881;-79
2021/10/13 17:20:41;;;;;;;1.33;0.41;;;;;;;8.31;85.04;100327.78;2327460;68;20212;-79
2021/10/13 17:23:44;;;;;;;0.40;0.31;;;;;;;8.18;85.18;100327.53;2328694;68;20322;-79
2021/10/13 17:26:46;;;;;;;1.38;0.40;;;;;;;8.09;85.24;100327.34;2326851;68;20298;-79
2021/10/13 17:29:49;;;;;;;0.39;0.34;;;;;;;7.95;85.19;100331.34;2326539;68;20380;-79
2021/10/13 17:32:52;;;;;;;1.86;0.40;;;;;;;7.83;85.54;100328.50;2323470;65;21518;-78
2021/10/13 17:35:54;;;;;;;2.33;0.44;;;;;;;7.75;85.96;100333.50;2327060;68;20346;-79
2021/10/13 17:38:58;;;;;;;1.26;0.40;;;;;;;7.69;86.42;100343.69;2328850;68;20677;-79
2021/10/13 17:42:00;;;;;;;1.39;0.50;;;;;;;7.67;86.86;100342.78;2327961;68;20291;-79
2021/10/13 17:45:05;;;;;;;1.45;0.40;;;;;;;7.66;87.29;100351.38;2327541;68;20321;-79
2021/10/13 17:48:08;;;;;;;0.46;0.30;;;;;;;7.66;87.74;100347.94;2325786;66;24370;-79
2021/10/13 17:51:11;;;;;;;1.70;0.40;;;;;;;7.66;88.18;100353.97;2321740;68;20744;-78
2021/10/13 17:54:14;;;;;;;0.70;0.40;;;;;;;7.66;88.41;100348.81;2321077;68;20295;-79
2021/10/13 17:57:17;;;;;;;2.26;0.40;;;;;;;7.68;88.67;100348.84;2327635;68;20763;-78
2021/10/13 18:00:19;;;;;;;1.30;0.40;;;;;;;7.67;88.82;100350.56;2322938;68;20406;-78
2021/10/13 18:03:23;;;;;;;0.61;0.38;;;;;;;7.63;88.69;100358.22;2322972;66;22874;-79
2021/10/13 18:06:26;;;;;;;2.38;0.40;;;;;;;7.62;88.87;100357.34;2316019;68;20323;-78
2021/10/13 18:09:28;;;;;;;0.73;0.50;;;;;;;7.62;88.76;100361.63;2326762;68;20886;-78
2021/10/13 18:12:33;;;;;;;0.40;0.40;;;;;;;7.57;88.65;100375.31;2327323;68;20674;-79
2021/10/13 18:15:48;;;;;;;1.27;0.50;;;;;;;7.54;88.78;100374.34;2325093;65;25188;-78
2021/10/13 18:18:52;;;;;;;1.26;0.85;;;;;;;7.47;88.73;100378.50;2326908;68;20740;-78
2021/10/13 18:21:57;;;;;;;2.90;1.10;;;;;;;7.42;88.66;100384.41;2325921;68;20287;-78
2021/10/13 18:25:00;;;;;;;0.74;0.74;;;;;;;7.40;88.73;100386.97;2325920;68;20324;-78
2021/10/13 18:28:04;;;;;;;1.77;0.68;;;;;;;7.37;88.67;100392.06;2319555;68;20316;-78
2021/10/13 18:31:12;;;;;;;2.40;0.50;;;;;;;7.25;88.33;100391.75;2309776;65;25393;-78
2021/10/13 18:34:15;;;;;;;1.63;0.60;;;;;;;7.13;88.34;100391.44;2325596;68;21197;-78
2021/10/13 18:37:17;;;;;;;0.65;0.59;;;;;;;7.03;88.33;100387.75;2326367;68;20343;-78
2021/10/13 18:40:21;;;;;;;2.03;0.59;;;;;;;6.96;88.38;100388.41;2324453;68;20294;-78
2021/10/13 18:43:25;;;;;;;1.56;0.50;;;;;;;6.88;88.48;100388.22;2326299;68;20375;-78
2021/10/13 18:46:28;;;;;;;0.80;0.51;;;;;;;6.82;88.65;100393.25;2325203;66;24441;-78
2021/10/13 18:49:31;;;;;;;0.60;0.60;;;;;;;6.77;88.76;100392.22;2326195;68;20295;-78
2021/10/13 18:52:35;;;;;;;1.27;0.70;;;;;;;6.71;88.67;100386.03;2322095;68;20348;-77
2021/10/13 18:55:38;;;;;;;2.44;0.49;;;;;;;6.61;88.68;100390.94;2324757;68;20518;-78
2021/10/13 18:58:41;;;;;;;0.93;0.50;;;;;;;6.50;88.40;100387.19;2327043;68;20303;-78
2021/10/13 19:01:43;;;;;;;2.51;0.46;;;;;;;6.42;88.53;100388.66;2324670;65;26909;-79
2021/10/13 19:04:47;;;;;;;2.28;0.60;;;;;;;6.37;88.59;100387.69;2328724;68;20335;-79
2021/10/13 19:07:49;;;;;;;0.70;0.56;;;;;;;6.31;88.80;100388.38;2328619;68;20291;-78
2021/10/13 19:10:52;;;;;;;1.61;0.50;;;;;;;6.27;88.84;100390.81;2327491;68;20317;-78
2021/10/13 19:13:55;;;;;;;0.84;0.60;;;;;;;6.21;88.90;100390.66;2326154;68;20379;-78
2021/10/13 19:16:58;;;;;;;1.42;0.60;;;;;;;6.18;89.08;100394.00;2325397;66;23188;-78
2021/10/13 19:20:02;;;;;;;1.91;1.29;;;;;;;6.13;89.23;100393.00;2327024;68;20848;-78
2021/10/13 19:23:05;;;;;;;0.85;0.65;;;;;;;6.10;89.17;100392.91;2327859;68;20287;-78
2021/10/13 19:26:08;;;;;;;1.11;0.50;;;;;;;6.02;89.07;100392.69;2327087;68;20858;-77
2021/10/13 19:29:11;;;;;;;0.57;0.50;;;;;;;5.95;88.96;100395.03;2327163;68;20353;-78
2021/10/13 19:32:15;;;;;;;5.18;0.93;;;;;;;5.94;89.44;100398.44;2325711;66;21701;-78
2021/10/13 19:35:18;;;;;;;1.84;0.71;;;;;;;5.93;89.74;100400.16;2328388;68;20316;-78
2021/10/13 19:38:22;;;;;;;2.13;0.69;;;;;;;5.97;90.13;100408.84;2325183;68;20422;-78
2021/10/13 19:41:25;;;;;;;1.10;0.88;;;;;;;6.02;90.52;100408.16;2328111;68;20290;-78
2021/10/13 19:44:27;;;;;;;0.84;0.69;;;;;;;6.04;90.82;100414.22;2327766;68;20311;-78
2021/10/13 19:47:30;;;;;;;1.51;0.86;;;;;;;6.06;90.98;100428.03;2326606;66;25074;-78
2021/10/13 19:50:33;;;;;;;1.19;0.82;;;;;;;6.07;91.13;100428.91;2327295;68;21018;-78
2021/10/13 19:53:38;;;;;;;0.95;0.74;;;;;;;6.09;91.13;100434.09;2327269;68;20763;-78
2021/10/13 19:56:42;;;;;;;1.15;0.80;;;;;;;6.07;90.94;100427.19;2327899;68;20433;-78
2021/10/13 19:59:44;;;;;;;2.00;1.00;;;;;;;6.05;90.81;100431.44;2327734;68;20290;-78
2021/10/13 20:02:47;;;;;;;2.01;0.88;;;;;;;6.03;90.84;100425.38;2323594;66;28845;-76
2021/10/13 20:05:52;;;;;;;2.09;1.40;;;;;;;6.02;90.93;100431.34;2324575;68;20283;-77
2021/10/13 20:08:54;;;;;;;5.16;1.29;;;;;;;6.06;91.09;100435.75;2323797;68;20306;-77
2021/10/13 20:11:57;;;;;;;1.59;1.19;;;;;;;6.09;91.12;100431.53;2325300;68;20808;-77
2021/10/13 20:15:01;;;;;;;1.61;1.10;;;;;;;6.09;91.17;100440.13;2326390;68;20287;-76
2021/10/13 20:18:03;;;;;;;2.59;1.46;;;;;;;6.07;91.05;100442.66;2326824;65;21637;-77
2021/10/13 20:21:06;;;;;;;2.09;1.59;;;;;;;6.09;91.14;100441.84;2324190;68;20315;-77
2021/10/13 20:24:09;;;;;;;1.91;1.27;;;;;;;6.09;91.18;100442.72;2327162;68;20490;-78
2021/10/13 20:27:11;;;;;;;2.72;1.54;;;;;;;6.07;91.24;100446.94;2326967;68;20308;-78
2021/10/13 20:30:14;;;;;;;1.54;1.33;;;;;;;6.02;91.08;100441.66;2325620;68;20317;-78
2021/10/13 20:33:17;;;;;;;1.83;1.45;;;;;;;6.00;90.98;100447.59;2328655;65;21762;-78
2021/10/13 20:36:19;;;;;;;2.40;1.50;;;;;;;5.94;90.71;100448.31;2330823;68;20287;-78
2021/10/13 20:39:22;;;;;;;1.88;1.51;;;;;;;5.92;90.72;100449.94;2328587;68;20316;-78
2021/10/13 20:42:26;;;;;;;1.79;1.42;;;;;;;5.89;90.65;100447.22;2327747;68;20309;-78
2021/10/13 20:45:30;;;;;;;2.61;1.44;;;;;;;5.84;90.71;100438.47;2326419;65;21937;-78
2021/10/13 20:48:33;;;;;;;1.96;1.30;;;;;;;5.80;90.61;100439.22;2328038;68;20271;-77
2021/10/13 20:51:35;;;;;;;1.98;1.31;;;;;;;5.76;90.46;100438.25;2327245;68;21014;-79
2021/10/13 20:54:38;;;;;;;2.35;1.08;;;;;;;5.70;90.32;100445.75;2328330;68;20312;-79
2021/10/13 20:57:43;;;;;;;2.05;1.24;;;;;;;5.65;90.30;100439.59;2328893;68;20306;-78
2021/10/13 21:00:45;;;;;;;1.70;1.30;;;;;;;5.61;90.20;100442.03;2325018;65;24354;-78
2021/10/13 21:03:50;;;;;;;2.06;1.45;;;;;;;5.58;90.31;100437.66;2328397;68;20298;-78
2021/10/13 21:06:53;;;;;;;1.69;1.23;;;;;;;5.51;90.25;100432.25;2327466;68;20335;-78
2021/10/13 21:09:55;;;;;;;2.10;1.50;;;;;;;5.47;90.35;100427.00;2328509;68;20371;-78
2021/10/13 21:12:59;;;;;;;1.50;1.25;;;;;;;5.46;90.48;100421.81;2328365;68;20453;-78
2021/10/13 21:16:01;;;;;;;1.42;1.33;;;;;;;5.48;90.81;100425.31;2320250;66;20808;-78
2021/10/13 21:19:04;;;;;;;3.01;1.25;;;;;;;5.49;91.02;100429.63;2329197;68;20302;-78
2021/10/13 21:22:07;;;;;;;1.26;1.16;;;;;;;5.47;91.05;100432.16;2327957;68;20312;-78
2021/10/13 21:25:09;;;;;;;1.66;1.30;;;;;;;5.46;91.13;100432.09;2329032;68;20332;-78
2021/10/13 21:28:12;;;;;;;2.08;1.10;;;;;;;5.43;91.11;100437.16;2333206;68;20274;-78
2021/10/13 21:31:15;;;;;;;1.56;1.09;;;;;;;5.40;91.10;100440.53;2327795;65;20310;-78
2021/10/13 21:34:17;;;;;;;3.06;1.20;;;;;;;5.38;91.13;100436.13;2327944;68;20418;-78
2021/10/13 21:37:20;;;;;;;1.49;1.02;;;;;;;5.36;91.00;100438.63;2327341;68;20982;-78
2021/10/13 21:40:23;;;;;;;2.34;1.50;;;;;;;5.32;90.99;100435.91;2329299;68;20940;-78
2021/10/13 21:43:26;;;;;;;1.42;0.93;;;;;;;5.28;90.93;100434.94;2328211;68;20307;-78
2021/10/13 21:46:28;;;;;;;1.23;1.09;;;;;;;5.25;90.83;100439.13;2326053;65;20618;-78
2021/10/13 21:49:31;;;;;;;1.33;1.09;;;;;;;5.26;91.05;100438.31;2328784;68;20489;-78
2021/10/13 21:52:34;;;;;;;1.77;1.44;;;;;;;5.28;91.27;100437.53;2333874;68;20303;-77
2021/10/13 21:55:37;;;;;;;4.76;1.34;;;;;;;5.30;91.48;100437.56;2327844;68;20416;-78
2021/10/13 21:58:39;;;;;;;2.63;1.04;;;;;;;5.35;91.63;100436.00;2328576;68;20715;-78
2021/10/13 22:01:42;;;;;;;1.34;0.93;;;;;;;5.35;91.48;100439.47;2316895;68;1028038;-80
2021/10/13 22:04:50;;;;;;;1.65;1.30;;;;;;;5.36;91.39;100445.50;2332656;68;20390;-80
2021/10/13 22:07:54;;;;;;;1.60;1.35;;;;;;;5.31;91.21;100457.34;2327681;68;20351;-78
2021/10/13 22:10:57;;;;;;;2.59;1.14;;;;;;;5.29;91.00;100456.41;2328281;68;20295;-78
2021/10/13 22:13:59;;;;;;;3.61;1.16;;;;;;;5.18;90.49;100442.28;2330817;68;20335;-79
2021/10/13 22:17:02;;;;;;;2.88;1.16;;;;;;;5.08;90.34;100444.56;2329042;65;21340;-79
2021/10/13 22:20:06;;;;;;;1.63;1.05;;;;;;;5.04;90.43;100436.69;2330495;68;20338;-79
2021/10/13 22:23:08;;;;;;;1.65;1.00;;;;;;;5.00;90.43;100450.25;2330116;68;20360;-79
2021/10/13 22:26:12;;;;;;;1.45;1.02;;;;;;;4.98;90.56;100446.75;2320485;68;20337;-79